createdAt,value
2022-08-03T00:00:30.076Z,15.94
2022-08-03T00:01:30.898Z,16.09
2022-08-03T00:02:30.065Z,15.90
2022-08-03T00:03:30.814Z,15.97
2022-08-03T00:04:34.133Z,15.88
2022-08-03T00:05:30.040Z,15.77
2022-08-03T00:06:33.777Z,15.76
2022-08-03T00:07:31.990Z,15.79
2022-08-03T00:08:30.021Z,15.77
2022-08-03T00:09:35.842Z,15.75
2022-08-03T00:10:31.777Z,15.72
2022-08-03T00:11:30.776Z,15.79
2022-08-03T00:12:29.959Z,15.73
2022-08-03T00:13:29.975Z,15.79
2022-08-03T00:14:29.964Z,15.80
2022-08-03T00:15:29.943Z,15.76
2022-08-03T00:16:30.912Z,15.77
2022-08-03T00:17:29.954Z,15.76
2022-08-03T00:18:30.937Z,15.82
2022-08-03T00:19:29.904Z,15.79
2022-08-03T00:20:29.956Z,15.83
2022-08-03T00:22:01.810Z,15.77
2022-08-03T00:22:30.902Z,15.72
2022-08-03T00:23:51.120Z,15.73
2022-08-03T00:24:31.858Z,15.70
2022-08-03T00:25:29.941Z,15.64
2022-08-03T00:26:29.860Z,15.64
2022-08-03T00:27:29.840Z,15.57
2022-08-03T00:28:30.801Z,15.57
2022-08-03T00:29:31.432Z,15.62
2022-08-03T00:30:30.948Z,15.61
2022-08-03T00:31:44.993Z,15.62
2022-08-03T00:32:30.807Z,15.59
2022-08-03T00:33:29.984Z,15.61
2022-08-03T00:34:57.123Z,15.43
2022-08-03T00:35:49.259Z,15.51
2022-08-03T00:36:30.805Z,15.42
2022-08-03T00:37:40.755Z,15.42
2022-08-03T00:38:30.816Z,15.49
2022-08-03T00:39:29.757Z,15.37
2022-08-03T00:40:29.751Z,15.44
2022-08-03T00:41:29.807Z,15.36
2022-08-03T00:42:29.734Z,15.44
2022-08-03T00:43:29.747Z,15.43
2022-08-03T00:44:29.712Z,15.42
2022-08-03T00:45:29.694Z,15.39
2022-08-03T00:46:29.687Z,15.42
2022-08-03T00:47:29.698Z,15.27
2022-08-03T00:48:33.738Z,15.35
2022-08-03T00:49:29.729Z,15.29
2022-08-03T00:50:29.726Z,15.31
2022-08-03T00:51:29.646Z,15.35
2022-08-03T00:52:29.716Z,15.37
2022-08-03T00:53:29.657Z,15.33
2022-08-03T00:54:29.631Z,15.31
2022-08-03T00:55:29.640Z,15.33
2022-08-03T00:56:29.661Z,15.21
2022-08-03T00:57:29.640Z,15.22
2022-08-03T00:58:29.643Z,15.22
2022-08-03T00:59:29.761Z,15.22
2022-08-03T01:00:29.596Z,15.22
2022-08-03T01:01:32.574Z,15.21
2022-08-03T01:03:01.513Z,15.07
2022-08-03T01:04:01.876Z,15.14
2022-08-03T01:05:02.397Z,15.11
2022-08-03T01:06:01.464Z,15.11
2022-08-03T01:06:29.538Z,15.22
2022-08-03T01:08:01.457Z,15.22
2022-08-03T01:08:29.567Z,15.19
2022-08-03T01:10:01.452Z,15.18
2022-08-03T01:10:29.571Z,15.14
2022-08-03T01:11:29.513Z,15.14
2022-08-03T01:12:29.485Z,15.19
2022-08-03T01:14:03.760Z,15.10
2022-08-03T01:14:30.485Z,15.09
2022-08-03T01:15:29.495Z,15.11
2022-08-03T01:16:37.055Z,15.07
2022-08-03T01:17:30.487Z,15.00
2022-08-03T01:18:29.454Z,15.06
2022-08-03T01:19:29.443Z,15.00
2022-08-03T01:20:29.456Z,14.97
2022-08-03T01:21:29.472Z,15.00
2022-08-03T01:22:29.437Z,14.99
2022-08-03T01:23:29.462Z,14.97
2022-08-03T01:24:29.458Z,14.99
2022-08-03T01:25:29.414Z,14.96
2022-08-03T01:26:29.394Z,14.88
2022-08-03T01:27:29.423Z,14.91
2022-08-03T01:28:29.424Z,14.84
2022-08-03T01:29:29.385Z,14.79
2022-08-03T01:30:29.358Z,14.81
2022-08-03T01:31:29.359Z,14.86
2022-08-03T01:32:58.849Z,14.82
2022-08-03T01:33:30.342Z,14.73
2022-08-03T01:34:29.348Z,14.79
2022-08-03T01:35:29.364Z,14.77
2022-08-03T01:36:29.336Z,14.77
2022-08-03T01:37:29.370Z,14.72
2022-08-03T01:38:29.316Z,14.69
2022-08-03T01:39:30.127Z,14.68
2022-08-03T01:40:29.286Z,14.66
2022-08-03T01:41:29.447Z,14.69
2022-08-03T01:42:29.275Z,14.68
2022-08-03T01:44:28.204Z,14.69
2022-08-03T01:44:31.013Z,14.66
2022-08-03T02:02:32.940Z,14.59
2022-08-03T02:03:27.845Z,14.59
2022-08-03T02:04:26.856Z,14.48
2022-08-03T02:05:28.019Z,14.53
2022-08-03T02:07:02.302Z,14.48
2022-08-03T02:07:28.987Z,14.43
2022-08-03T02:08:27.954Z,14.37
2022-08-03T02:09:27.969Z,14.33
2022-08-03T02:10:34.951Z,14.40
2022-08-03T02:11:28.975Z,14.36
2022-08-03T02:12:27.988Z,14.36
2022-08-03T02:13:27.912Z,14.43
2022-08-03T02:14:27.925Z,14.41
2022-08-03T02:15:59.889Z,14.33
2022-08-03T02:16:27.877Z,14.40
2022-08-03T02:17:39.632Z,14.33
2022-08-03T02:18:28.883Z,14.32
2022-08-03T02:19:31.392Z,14.37
2022-08-03T02:20:28.854Z,14.28
2022-08-03T02:21:57.233Z,14.32
2022-08-03T02:22:28.829Z,14.25
2022-08-03T02:23:28.467Z,14.25
2022-08-03T02:24:27.863Z,14.23
2022-08-03T02:25:27.833Z,14.18
2022-08-03T02:26:27.824Z,14.26
2022-08-03T02:27:27.775Z,14.26
2022-08-03T02:28:27.775Z,14.22
2022-08-03T02:29:40.380Z,14.15
2022-08-03T02:30:28.765Z,14.25
2022-08-03T02:31:27.764Z,14.11
2022-08-03T02:32:27.761Z,14.14
2022-08-03T02:33:27.752Z,14.15
2022-08-03T02:34:27.738Z,14.10
2022-08-03T02:35:27.753Z,14.12
2022-08-03T02:36:27.723Z,14.11
2022-08-03T02:37:27.724Z,14.11
2022-08-03T02:38:27.741Z,14.05
2022-08-03T02:39:27.734Z,14.03
2022-08-03T02:40:27.714Z,14.03
2022-08-03T02:41:27.725Z,14.07
2022-08-03T02:42:27.668Z,13.97
2022-08-03T02:43:27.680Z,14.03
2022-08-03T02:44:28.656Z,13.99
2022-08-03T02:45:27.636Z,14.03
2022-08-03T02:46:27.667Z,13.96
2022-08-03T02:47:27.676Z,13.99
2022-08-03T02:48:27.631Z,13.95
2022-08-03T02:49:40.761Z,13.90
2022-08-03T02:50:28.596Z,13.92
2022-08-03T02:51:27.615Z,13.95
2022-08-03T02:52:27.664Z,13.85
2022-08-03T02:53:27.615Z,13.87
2022-08-03T02:54:27.572Z,13.89
2022-08-03T02:55:27.571Z,13.87
2022-08-03T02:56:27.562Z,13.87
2022-08-03T02:57:27.563Z,13.77
2022-08-03T02:58:27.565Z,13.85
2022-08-03T02:59:27.577Z,13.81
2022-08-03T03:00:28.667Z,13.86
2022-08-03T03:01:27.610Z,13.85
2022-08-03T03:02:27.537Z,13.83
2022-08-03T03:03:28.280Z,13.86
2022-08-03T03:04:28.475Z,13.83
2022-08-03T03:05:52.409Z,13.81
2022-08-03T03:06:30.106Z,13.79
2022-08-03T03:07:28.780Z,13.86
2022-08-03T03:08:29.259Z,13.85
2022-08-03T03:09:40.045Z,13.83
2022-08-03T03:10:28.473Z,13.83
2022-08-03T03:11:27.473Z,13.86
2022-08-03T03:12:27.451Z,13.83
2022-08-03T03:13:27.443Z,13.79
2022-08-03T03:14:33.711Z,13.81
2022-08-03T03:15:28.447Z,13.79
2022-08-03T03:16:27.459Z,13.74
2022-08-03T03:17:27.407Z,13.67
2022-08-03T03:18:27.389Z,13.72
2022-08-03T03:19:27.403Z,13.62
2022-08-03T03:20:30.254Z,13.70
2022-08-03T03:21:27.398Z,13.60
2022-08-03T03:22:27.382Z,13.72
2022-08-03T03:23:27.349Z,13.68
2022-08-03T03:24:27.366Z,13.72
2022-08-03T03:25:27.353Z,13.65
2022-08-03T03:26:27.326Z,13.65
2022-08-03T03:27:27.351Z,13.74
2022-08-03T03:28:27.349Z,13.65
2022-08-03T03:29:27.307Z,13.67
2022-08-03T03:30:27.320Z,13.63
2022-08-03T03:31:27.324Z,13.74
2022-08-03T03:32:27.292Z,13.65
2022-08-03T03:33:28.666Z,13.71
2022-08-03T03:34:28.285Z,13.67
2022-08-03T03:35:27.271Z,13.68
2022-08-03T03:36:27.273Z,13.59
2022-08-03T03:37:27.297Z,13.65
2022-08-03T03:38:27.246Z,13.71
2022-08-03T03:39:27.250Z,13.63
2022-08-03T03:40:27.236Z,13.77
2022-08-03T03:41:27.215Z,13.70
2022-08-03T03:42:28.237Z,13.72
2022-08-03T03:43:27.208Z,13.54
2022-08-03T03:44:27.233Z,13.59
2022-08-03T03:45:27.201Z,13.59
2022-08-03T04:01:35.867Z,13.31
2022-08-03T04:02:35.853Z,13.22
2022-08-03T04:03:36.971Z,13.31
2022-08-03T04:04:36.972Z,13.27
2022-08-03T04:05:37.065Z,13.31
2022-08-03T04:06:36.983Z,13.41
2022-08-03T04:07:36.945Z,13.38
2022-08-03T04:08:36.961Z,13.41
2022-08-03T04:09:36.929Z,13.46
2022-08-03T04:10:36.926Z,13.47
2022-08-03T04:11:36.930Z,13.44
2022-08-03T04:12:36.912Z,13.57
2022-08-03T04:13:36.909Z,13.57
2022-08-03T04:14:36.908Z,13.62
2022-08-03T04:15:36.975Z,13.85
2022-08-03T04:16:39.803Z,14.14
2022-08-03T04:17:37.867Z,14.44
2022-08-03T04:18:37.579Z,14.60
2022-08-03T04:20:08.768Z,14.91
2022-08-03T04:20:36.839Z,15.06
2022-08-03T04:22:08.783Z,15.39
2022-08-03T04:22:36.821Z,15.61
2022-08-03T04:24:08.857Z,15.83
2022-08-03T04:24:36.896Z,16.13
2022-08-03T04:26:08.736Z,16.28
2022-08-03T04:27:08.719Z,16.58
2022-08-03T04:28:29.762Z,16.83
2022-08-03T04:28:37.788Z,17.02
2022-08-03T04:29:38.713Z,17.27
2022-08-03T04:30:38.652Z,17.46
2022-08-03T04:31:36.772Z,17.74
2022-08-03T04:32:36.806Z,17.85
2022-08-03T04:33:36.777Z,18.04
2022-08-03T04:34:36.746Z,18.23
2022-08-03T04:36:01.258Z,18.29
2022-08-03T04:36:37.733Z,18.56
2022-08-03T04:37:36.722Z,18.62
2022-08-03T04:38:36.736Z,18.74
2022-08-03T04:39:36.719Z,18.86
2022-08-03T04:40:36.706Z,19.11
2022-08-03T04:42:07.103Z,19.33
2022-08-03T04:42:37.695Z,19.39
2022-08-03T04:43:36.702Z,19.39
2022-08-03T04:44:36.686Z,19.52
2022-08-03T04:45:36.654Z,19.73
2022-08-03T04:46:36.644Z,20.06
2022-08-03T04:47:36.638Z,20.22
2022-08-03T04:48:36.631Z,20.28
2022-08-03T04:49:36.731Z,20.37
2022-08-03T04:50:36.650Z,20.41
2022-08-03T04:51:36.677Z,20.31
2022-08-03T04:52:36.624Z,20.24
2022-08-03T04:53:36.621Z,20.56
2022-08-03T04:54:36.611Z,20.75
2022-08-03T04:55:36.636Z,20.88
2022-08-03T04:56:36.587Z,20.92
2022-08-03T04:57:36.569Z,21.11
2022-08-03T04:58:36.556Z,21.24
2022-08-03T04:59:36.559Z,20.88
2022-08-03T05:00:36.589Z,20.80
2022-08-03T05:01:36.623Z,20.51
2022-08-03T05:02:36.541Z,20.37
2022-08-03T05:03:36.523Z,20.19
2022-08-03T05:04:36.505Z,20.18
2022-08-03T05:05:50.155Z,20.11
2022-08-03T05:06:41.408Z,20.11
2022-08-03T05:07:37.486Z,20.32
2022-08-03T05:08:46.087Z,20.24
2022-08-03T05:09:49.858Z,20.16
2022-08-03T05:10:37.483Z,20.25
2022-08-03T05:11:36.487Z,20.11
2022-08-03T05:12:36.459Z,20.22
2022-08-03T05:13:36.469Z,20.25
2022-08-03T05:14:36.442Z,20.74
2022-08-03T05:15:36.424Z,21.07
2022-08-03T05:16:38.202Z,21.64
2022-08-03T05:17:36.578Z,22.13
2022-08-03T05:18:36.438Z,22.66
2022-08-03T05:19:36.452Z,23.00
2022-08-03T05:20:36.389Z,23.21
2022-08-03T05:21:51.914Z,23.41
2022-08-03T05:22:37.383Z,23.58
2022-08-03T05:23:36.367Z,23.12
2022-08-03T05:24:36.434Z,23.21
2022-08-03T05:25:36.421Z,23.63
2022-08-03T05:26:36.417Z,23.87
2022-08-03T05:27:36.335Z,24.02
2022-08-03T05:28:36.340Z,24.38
2022-08-03T05:29:36.318Z,24.33
2022-08-03T05:30:37.311Z,24.05
2022-08-03T05:31:36.352Z,23.08
2022-08-03T05:32:36.312Z,22.30
2022-08-03T05:33:36.292Z,21.58
2022-08-03T05:34:36.321Z,21.83
2022-08-03T05:35:56.156Z,22.41
2022-08-03T05:36:37.290Z,22.66
2022-08-03T05:37:36.296Z,23.12
2022-08-03T05:38:36.252Z,22.83
2022-08-03T05:39:36.270Z,22.65
2022-08-03T05:40:36.293Z,22.25
2022-08-03T05:41:37.382Z,21.88
2022-08-03T05:42:36.253Z,22.18
2022-08-03T05:43:36.242Z,22.32
2022-08-03T05:44:36.245Z,22.59
2022-08-03T05:45:36.214Z,22.96
2022-08-03T05:46:36.206Z,23.65
2022-08-03T05:47:36.222Z,24.01
2022-08-03T05:48:36.193Z,24.47
2022-08-03T05:49:36.212Z,24.33
2022-08-03T05:50:38.774Z,23.83
2022-08-03T05:51:38.205Z,23.87
2022-08-03T05:52:36.162Z,24.50
2022-08-03T05:53:36.182Z,25.18
2022-08-03T05:54:56.711Z,25.87
2022-08-03T05:55:37.140Z,26.21
2022-08-03T05:56:36.149Z,26.40
2022-08-03T05:57:36.125Z,25.98
2022-08-03T05:58:36.795Z,25.75
2022-08-03T05:59:38.525Z,26.21
2022-08-03T06:00:37.102Z,25.54
2022-08-03T06:01:36.265Z,25.22
2022-08-03T06:02:36.086Z,24.50
2022-08-03T06:03:36.248Z,24.51
2022-08-03T06:04:36.078Z,24.54
2022-08-03T06:05:36.076Z,23.74
2022-08-03T06:06:37.114Z,23.24
2022-08-03T06:07:36.051Z,23.09
2022-08-03T06:08:36.072Z,23.23
2022-08-03T06:10:36.060Z,24.02
2022-08-03T06:10:38.360Z,24.77
2022-08-03T06:11:36.017Z,25.91
2022-08-03T06:12:36.079Z,25.50
2022-08-03T06:13:36.057Z,25.17
2022-08-03T06:14:36.034Z,24.86
2022-08-03T06:15:36.037Z,25.48
2022-08-03T06:16:36.033Z,25.95
2022-08-03T06:17:37.487Z,25.53
2022-08-03T06:18:35.992Z,25.17
2022-08-03T06:19:36.014Z,24.76
2022-08-03T06:20:35.974Z,24.26
2022-08-03T06:21:35.982Z,23.41
2022-08-03T06:22:35.980Z,23.77
2022-08-03T06:23:54.953Z,24.10
2022-08-03T06:24:36.958Z,24.23
2022-08-03T06:25:35.928Z,24.24
2022-08-03T06:26:35.914Z,23.34
2022-08-03T06:27:37.652Z,23.25
2022-08-03T06:28:52.690Z,23.13
2022-08-03T06:29:37.919Z,23.36
2022-08-03T06:30:35.918Z,23.43
2022-08-03T06:31:35.900Z,23.10
2022-08-03T06:32:35.887Z,22.98
2022-08-03T06:34:29.099Z,23.55
2022-08-03T06:34:36.943Z,24.02
2022-08-03T06:35:35.881Z,24.21
2022-08-03T06:36:35.889Z,24.11
2022-08-03T06:37:35.843Z,24.11
2022-08-03T06:38:35.833Z,24.63
2022-08-03T06:39:35.832Z,24.96
2022-08-03T06:40:35.829Z,25.26
2022-08-03T06:41:37.433Z,25.59
2022-08-03T06:42:35.815Z,25.98
2022-08-03T06:43:36.058Z,25.31
2022-08-03T06:45:22.384Z,24.45
2022-08-03T06:46:22.386Z,24.73
2022-08-03T06:47:23.507Z,24.77
2022-08-03T06:48:23.496Z,24.20
2022-08-03T06:49:23.599Z,24.26
2022-08-03T06:50:26.346Z,24.17
2022-08-03T06:52:04.117Z,24.39
2022-08-03T06:52:38.127Z,24.65
2022-08-03T06:53:24.446Z,24.18
2022-08-03T06:54:23.441Z,24.13
2022-08-03T06:55:23.450Z,24.47
2022-08-03T06:56:23.436Z,25.01
2022-08-03T06:57:23.509Z,25.25
2022-08-03T06:58:23.424Z,25.33
2022-08-03T07:00:06.451Z,25.32
2022-08-03T07:00:24.461Z,26.28
2022-08-03T07:01:23.424Z,26.68
2022-08-03T07:02:23.410Z,26.77
2022-08-03T07:03:23.451Z,27.00
2022-08-03T07:04:23.396Z,27.90
2022-08-03T07:05:23.541Z,28.86
2022-08-03T07:06:23.374Z,29.22
2022-08-03T07:07:23.358Z,28.76
2022-08-03T07:08:33.512Z,29.22
2022-08-03T07:09:24.425Z,28.48
2022-08-03T07:10:23.586Z,28.07
2022-08-03T07:11:23.404Z,27.86
2022-08-03T07:12:23.342Z,28.56
2022-08-03T07:13:23.313Z,28.96
2022-08-03T07:14:23.349Z,29.01
2022-08-03T07:15:38.377Z,29.54
2022-08-03T07:16:24.320Z,30.24
2022-08-03T07:17:23.294Z,29.98
2022-08-03T07:18:25.649Z,29.44
2022-08-03T07:19:24.299Z,29.86
2022-08-03T07:20:30.977Z,29.49
2022-08-03T07:21:25.284Z,29.27
2022-08-03T07:22:23.359Z,29.31
2022-08-03T07:23:23.275Z,29.22
2022-08-03T07:24:23.274Z,28.75
2022-08-03T07:25:23.245Z,28.38
2022-08-03T07:26:23.236Z,28.44
2022-08-03T07:27:23.269Z,29.44
2022-08-03T07:28:23.232Z,30.51
2022-08-03T07:29:23.216Z,31.14
2022-08-03T07:30:23.363Z,31.28
2022-08-03T07:31:23.222Z,30.65
2022-08-03T07:32:23.219Z,30.92
2022-08-03T07:33:23.202Z,30.85
2022-08-03T07:34:23.169Z,30.68
2022-08-03T07:35:24.969Z,30.99
2022-08-03T07:36:23.174Z,31.54
2022-08-03T07:37:23.149Z,31.73
2022-08-03T07:38:23.219Z,31.51
2022-08-03T07:39:23.138Z,31.52
2022-08-03T07:40:23.150Z,32.14
2022-08-03T07:41:23.120Z,32.33
2022-08-03T07:42:23.121Z,32.16
2022-08-03T07:43:23.173Z,31.65
2022-08-03T07:44:23.161Z,31.18
2022-08-03T07:45:24.182Z,30.78
2022-08-03T07:46:23.206Z,30.39
2022-08-03T07:47:23.086Z,29.66
2022-08-03T07:48:23.100Z,30.06
2022-08-03T07:49:23.161Z,30.65
2022-08-03T07:50:23.059Z,31.36
2022-08-03T07:51:23.064Z,30.78
2022-08-03T07:52:23.038Z,31.61
2022-08-03T07:53:24.079Z,32.40
2022-08-03T07:54:23.069Z,32.55
2022-08-03T07:55:23.026Z,33.14
2022-08-03T07:56:23.039Z,33.64
2022-08-03T07:57:23.054Z,33.68
2022-08-03T07:58:24.305Z,33.22
2022-08-03T07:59:23.996Z,32.48
2022-08-03T08:00:23.054Z,32.34
2022-08-03T08:01:23.070Z,33.05
2022-08-03T08:02:23.074Z,33.57
2022-08-03T08:03:22.968Z,33.68
2022-08-03T08:04:23.100Z,33.00
2022-08-03T08:05:22.954Z,32.03
2022-08-03T08:06:22.949Z,32.18
2022-08-03T08:07:22.963Z,32.08
2022-08-03T08:08:22.932Z,31.64
2022-08-03T08:09:22.951Z,31.87
2022-08-03T08:10:22.991Z,32.08
2022-08-03T08:11:22.938Z,32.75
2022-08-03T08:12:22.911Z,33.76
2022-08-03T08:13:22.940Z,34.08
2022-08-03T08:14:23.894Z,34.18
2022-08-03T08:15:22.908Z,34.35
2022-08-03T08:16:54.831Z,34.52
2022-08-03T08:17:22.902Z,34.21
2022-08-03T08:18:22.926Z,34.13
2022-08-03T08:19:22.884Z,34.39
2022-08-03T08:20:27.804Z,34.89
2022-08-03T08:21:23.839Z,35.14
2022-08-03T08:22:30.561Z,35.85
2022-08-03T08:23:41.921Z,36.67
2022-08-03T08:24:24.879Z,36.92
2022-08-03T08:25:22.837Z,36.49
2022-08-03T08:26:23.575Z,35.30
2022-08-03T08:27:22.829Z,34.77
2022-08-03T08:28:30.168Z,34.93
2022-08-03T08:29:24.817Z,35.39
2022-08-03T08:30:22.793Z,36.12
2022-08-03T08:31:22.787Z,35.36
2022-08-03T08:32:24.594Z,34.32
2022-08-03T08:33:23.963Z,33.50
2022-08-03T08:34:22.861Z,32.31
2022-08-03T08:35:22.764Z,32.51
2022-08-03T08:36:22.744Z,33.73
2022-08-03T08:37:22.744Z,34.74
2022-08-03T08:38:22.737Z,33.95
2022-08-03T08:39:22.761Z,33.96
2022-08-03T08:40:22.748Z,33.68
2022-08-03T08:41:23.586Z,34.08
2022-08-03T08:42:23.730Z,34.13
2022-08-03T08:43:22.704Z,33.43
2022-08-03T08:44:22.779Z,33.87
2022-08-03T08:45:22.828Z,34.85
2022-08-03T08:46:23.799Z,34.75
2022-08-03T08:47:22.670Z,34.77
2022-08-03T08:48:22.675Z,35.44
2022-08-03T08:49:22.685Z,36.25
2022-08-03T08:50:27.856Z,36.51
2022-08-03T08:51:23.676Z,34.99
2022-08-03T08:52:25.193Z,34.30
2022-08-03T08:53:27.313Z,34.30
2022-08-03T08:54:24.641Z,35.37
2022-08-03T08:55:22.643Z,36.33
2022-08-03T08:56:22.645Z,36.91
2022-08-03T08:57:41.839Z,35.76
2022-08-03T08:58:24.758Z,35.44
2022-08-03T08:59:22.600Z,34.89
2022-08-03T09:00:22.705Z,35.30
2022-08-03T09:01:22.785Z,35.24
2022-08-03T09:02:22.584Z,35.27
2022-08-03T09:03:29.538Z,36.05
2022-08-03T09:04:23.568Z,36.88
2022-08-03T09:05:36.251Z,37.23
2022-08-03T09:06:24.594Z,37.77
2022-08-03T09:07:22.570Z,37.51
2022-08-03T09:08:22.545Z,37.29
2022-08-03T09:10:01.331Z,37.56
2022-08-03T09:10:23.562Z,37.53
2022-08-03T09:11:22.535Z,38.02
2022-08-03T09:12:39.170Z,38.43
2022-08-03T09:13:24.548Z,38.58
2022-08-03T09:14:37.213Z,38.36
2022-08-03T09:15:23.503Z,38.68
2022-08-03T09:16:23.225Z,38.76
2022-08-03T09:17:22.728Z,38.84
2022-08-03T09:18:22.521Z,38.46
2022-08-03T09:19:23.210Z,37.67
2022-08-03T09:20:23.102Z,37.86
2022-08-03T09:21:35.993Z,38.05
2022-08-03T09:22:25.125Z,37.96
2022-08-03T09:23:58.948Z,37.97
2022-08-03T09:24:40.633Z,38.36
2022-08-03T09:25:25.183Z,38.55
2022-08-03T09:26:24.104Z,38.64
2022-08-03T09:27:23.112Z,38.79
2022-08-03T09:29:00.545Z,39.07
2022-08-03T09:29:24.110Z,38.45
2022-08-03T09:30:34.177Z,38.34
2022-08-03T09:31:23.396Z,38.12
2022-08-03T09:32:22.428Z,36.76
2022-08-03T09:33:22.388Z,36.73
2022-08-03T09:34:22.404Z,36.58
2022-08-03T09:35:33.094Z,35.48
2022-08-03T09:36:25.114Z,35.31
2022-08-03T09:37:23.223Z,35.88
2022-08-03T09:38:23.367Z,35.85
2022-08-03T09:39:41.659Z,36.01
2022-08-03T09:40:23.354Z,35.79
2022-08-03T09:41:22.349Z,36.36
2022-08-03T09:42:23.885Z,36.98
2022-08-03T09:43:22.334Z,37.58
2022-08-03T09:44:25.834Z,37.03
2022-08-03T09:45:22.322Z,36.84
2022-08-03T09:46:23.116Z,36.18
2022-08-03T09:47:26.705Z,35.14
2022-08-03T09:48:24.329Z,35.42
2022-08-03T09:49:22.380Z,36.21
2022-08-03T09:50:22.310Z,36.79
2022-08-03T09:52:27.295Z,37.20
2022-08-03T09:52:38.160Z,36.05
2022-08-03T09:53:23.296Z,34.58
2022-08-03T09:54:22.292Z,33.32
2022-08-03T09:56:05.220Z,33.15
2022-08-03T09:56:33.400Z,33.71
2022-08-03T09:57:23.255Z,33.92
2022-08-03T09:58:22.267Z,34.14
2022-08-03T09:59:22.255Z,34.50
2022-08-03T10:00:22.287Z,33.98
2022-08-03T10:01:24.142Z,32.73
2022-08-03T10:02:22.261Z,32.43
2022-08-03T10:03:22.244Z,33.15
2022-08-03T10:04:22.211Z,33.57
2022-08-03T10:05:22.231Z,34.55
2022-08-03T10:06:22.206Z,34.29
2022-08-03T10:07:22.201Z,34.17
2022-08-03T10:08:22.185Z,34.18
2022-08-03T10:09:22.176Z,33.83
2022-08-03T10:10:30.227Z,34.39
2022-08-03T10:11:23.214Z,34.73
2022-08-03T10:12:22.156Z,35.61
2022-08-03T10:13:22.142Z,35.60
2022-08-03T10:14:22.188Z,36.31
2022-08-03T10:16:21.351Z,36.77
2022-08-03T10:16:25.651Z,37.11
2022-08-03T10:17:23.130Z,37.59
2022-08-03T10:18:22.156Z,38.05
2022-08-03T10:19:22.162Z,38.54
2022-08-03T10:20:22.151Z,38.58
2022-08-03T10:21:22.105Z,38.49
2022-08-03T10:22:22.170Z,38.30
2022-08-03T10:23:22.097Z,38.08
2022-08-03T10:24:22.108Z,37.86
2022-08-03T10:25:22.112Z,37.56
2022-08-03T10:26:23.073Z,37.51
2022-08-03T10:27:22.087Z,37.58
2022-08-03T10:28:22.125Z,37.77
2022-08-03T10:29:22.065Z,37.84
2022-08-03T10:30:22.050Z,37.99
2022-08-03T10:31:22.049Z,38.20
2022-08-03T10:32:22.015Z,38.26
2022-08-03T10:33:50.131Z,38.30
2022-08-03T10:34:23.013Z,38.01
2022-08-03T10:35:22.034Z,37.10
2022-08-03T10:36:22.022Z,36.49
2022-08-03T10:37:22.027Z,36.46
2022-08-03T10:38:21.984Z,36.14
2022-08-03T10:39:22.007Z,36.39
2022-08-03T10:40:39.557Z,35.49
2022-08-03T10:41:23.972Z,35.30
2022-08-03T10:42:21.963Z,36.04
2022-08-03T10:43:22.641Z,36.55
2022-08-03T10:44:21.969Z,37.15
2022-08-03T10:45:21.949Z,37.08
2022-08-03T10:46:21.963Z,37.28
2022-08-03T10:47:21.946Z,37.26
2022-08-03T10:48:22.639Z,37.03
2022-08-03T10:49:32.849Z,36.93
2022-08-03T10:50:22.899Z,37.10
2022-08-03T10:51:21.924Z,36.80
2022-08-03T10:52:31.935Z,36.79
2022-08-03T10:53:22.882Z,35.95
2022-08-03T10:54:21.905Z,35.86
2022-08-03T10:55:21.869Z,36.05
2022-08-03T10:56:35.661Z,36.68
2022-08-03T10:57:22.952Z,36.83
2022-08-03T10:58:30.586Z,36.96
2022-08-03T10:59:27.919Z,37.39
2022-08-03T11:00:22.971Z,37.40
2022-08-03T11:01:21.937Z,37.35
2022-08-03T11:02:21.870Z,37.97
2022-08-03T11:03:22.646Z,37.70
2022-08-03T11:04:21.804Z,37.78
2022-08-03T11:05:21.839Z,37.90
2022-08-03T11:06:21.806Z,37.78
2022-08-03T11:07:22.246Z,37.26
2022-08-03T11:08:21.784Z,36.36
2022-08-03T11:09:21.769Z,35.82
2022-08-03T11:10:21.858Z,35.85
2022-08-03T11:11:21.774Z,35.98
2022-08-03T11:12:21.795Z,35.00
2022-08-03T11:13:22.792Z,34.61
2022-08-03T11:14:21.752Z,34.66
2022-08-03T11:15:21.806Z,35.55
2022-08-03T11:16:22.270Z,36.30
2022-08-03T11:17:23.295Z,36.46
2022-08-03T11:18:21.763Z,36.01
2022-08-03T11:19:23.638Z,36.36
2022-08-03T11:20:21.706Z,36.61
2022-08-03T11:21:21.705Z,36.74
2022-08-03T11:22:22.656Z,37.02
2022-08-03T11:24:04.810Z,37.29
2022-08-03T11:24:22.731Z,37.33
2022-08-03T11:25:54.115Z,37.37
2022-08-03T11:26:22.666Z,37.23
2022-08-03T11:27:21.916Z,36.95
2022-08-03T11:28:21.723Z,36.95
2022-08-03T11:29:21.659Z,37.07
2022-08-03T11:30:21.667Z,37.32
2022-08-03T11:31:48.077Z,37.67
2022-08-03T11:32:23.655Z,37.64
2022-08-03T11:33:21.617Z,37.17
2022-08-03T11:34:21.669Z,36.51
2022-08-03T11:35:21.607Z,36.30
2022-08-03T11:36:32.570Z,36.52
2022-08-03T11:37:23.124Z,36.04
2022-08-03T11:38:21.583Z,35.23
2022-08-03T11:39:21.641Z,35.48
2022-08-03T11:40:21.627Z,34.50
2022-08-03T11:41:21.592Z,33.87
2022-08-03T11:42:21.567Z,33.95
2022-08-03T11:43:25.726Z,33.99
2022-08-03T11:44:21.616Z,34.11
2022-08-03T11:45:21.565Z,33.76
2022-08-03T11:46:29.496Z,33.34
2022-08-03T11:47:22.867Z,33.36
2022-08-03T11:48:21.570Z,33.62
2022-08-03T11:49:22.645Z,33.86
2022-08-03T11:50:22.524Z,34.16
2022-08-03T11:51:22.283Z,34.42
2022-08-03T11:52:27.010Z,34.48
2022-08-03T11:53:22.506Z,33.99
2022-08-03T11:54:21.490Z,34.50
2022-08-03T11:55:21.503Z,35.22
2022-08-03T11:56:21.457Z,35.73
2022-08-03T11:57:21.470Z,36.01
2022-08-03T11:59:01.152Z,36.09
2022-08-03T11:59:22.751Z,36.46
2022-08-03T12:00:22.497Z,36.37
2022-08-03T12:01:23.203Z,36.36
2022-08-03T12:02:22.642Z,36.47
2022-08-03T12:03:21.489Z,36.52
2022-08-03T12:04:21.418Z,36.61
2022-08-03T12:05:21.410Z,36.99
2022-08-03T12:06:22.170Z,36.21
2022-08-03T12:08:02.255Z,35.41
2022-08-03T12:08:22.395Z,34.35
2022-08-03T12:09:21.471Z,33.80
2022-08-03T12:10:21.412Z,33.28
2022-08-03T12:11:22.430Z,33.00
2022-08-03T12:12:21.362Z,33.64
2022-08-03T12:14:36.707Z,34.23
2022-08-03T12:14:48.940Z,34.74
2022-08-03T12:15:22.353Z,34.92
2022-08-03T12:16:21.501Z,35.05
2022-08-03T12:17:21.661Z,35.30
2022-08-03T12:18:21.341Z,35.45
2022-08-03T12:19:21.348Z,35.45
2022-08-03T12:20:21.324Z,35.79
2022-08-03T12:21:22.299Z,36.07
2022-08-03T12:22:21.316Z,36.52
2022-08-03T12:23:21.319Z,36.88
2022-08-03T12:24:21.305Z,37.21
2022-08-03T12:25:38.644Z,36.81
2022-08-03T12:26:22.265Z,36.40
2022-08-03T12:27:21.330Z,36.74
2022-08-03T12:28:36.038Z,37.33
2022-08-03T12:29:22.764Z,37.03
2022-08-03T12:30:24.149Z,37.53
2022-08-03T12:31:26.696Z,37.97
2022-08-03T12:32:22.354Z,38.26
2022-08-03T12:33:21.251Z,37.87
2022-08-03T12:34:21.297Z,36.98
2022-08-03T12:35:21.225Z,36.31
2022-08-03T12:36:21.203Z,35.85
2022-08-03T12:37:22.607Z,35.98
2022-08-03T12:38:21.218Z,35.64
2022-08-03T12:39:21.229Z,35.22
2022-08-03T12:40:23.111Z,35.33
2022-08-03T12:41:22.186Z,34.55
2022-08-03T12:42:21.200Z,34.40
2022-08-03T12:43:21.160Z,34.40
2022-08-03T12:44:21.163Z,34.21
2022-08-03T12:45:21.178Z,33.59
2022-08-03T12:46:21.179Z,33.59
2022-08-03T12:47:21.365Z,33.92
2022-08-03T12:48:21.136Z,34.62
2022-08-03T12:49:21.191Z,35.22
2022-08-03T12:50:21.127Z,35.48
2022-08-03T12:51:21.094Z,35.49
2022-08-03T12:52:21.098Z,35.67
2022-08-03T12:53:21.684Z,35.98
2022-08-03T12:54:24.852Z,36.16
2022-08-03T12:55:21.088Z,36.24
2022-08-03T12:56:21.114Z,36.65
2022-08-03T12:57:21.533Z,36.46
2022-08-03T12:58:21.683Z,36.30
2022-08-03T12:59:22.245Z,36.30
2022-08-03T13:00:28.699Z,36.37
2022-08-03T13:01:22.135Z,36.68
2022-08-03T13:02:21.124Z,36.91
2022-08-03T13:03:41.994Z,37.36
2022-08-03T13:04:23.091Z,37.72
2022-08-03T13:05:21.025Z,37.21
2022-08-03T13:06:22.048Z,37.65
2022-08-03T13:07:36.823Z,37.74
2022-08-03T13:08:21.016Z,36.99
2022-08-03T13:09:20.990Z,37.53
2022-08-03T13:10:26.617Z,37.87
2022-08-03T13:11:22.082Z,38.23
2022-08-03T13:12:21.147Z,38.69
2022-08-03T13:13:25.906Z,39.03
2022-08-03T13:14:23.484Z,39.22
2022-08-03T13:15:20.971Z,38.71
2022-08-03T13:16:20.961Z,37.89
2022-08-03T13:17:21.380Z,36.59
2022-08-03T13:18:20.983Z,35.79
2022-08-03T13:19:20.949Z,35.29
2022-08-03T13:20:20.982Z,35.23
2022-08-03T13:21:20.924Z,35.44
2022-08-03T13:22:20.926Z,35.39
2022-08-03T13:23:22.440Z,35.12
2022-08-03T13:24:20.901Z,34.85
2022-08-03T13:25:21.010Z,34.75